sensor_id;sensor_type;location;lat;lon;timestamp;temperature;humidity
4651;DHT22;2338;49.602;8.722;2023-08-06T00:00:24;16.70;99.90
4651;DHT22;2338;49.602;8.722;2023-08-06T00:03:09;16.70;99.90
4651;DHT22;2338;49.602;8.722;2023-08-06T00:05:55;16.60;99.90
4651;DHT22;2338;49.602;8.722;2023-08-06T00:08:40;16.50;99.90
4651;DHT22;2338;49.602;8.722;2023-08-06T00:11:26;16.50;99.90
4651;DHT22;2338;49.602;8.722;2023-08-06T00:14:12;16.50;99.90
4651;DHT22;2338;49.602;8.722;2023-08-06T00:17:00;16.30;99.90
4651;DHT22;2338;49.602;8.722;2023-08-06T00:19:45;16.30;99.90
4651;DHT22;2338;49.602;8.722;2023-08-06T00:22:31;16.30;99.90
4651;DHT22;2338;49.602;8.722;2023-08-06T00:25:17;16.30;99.90
4651;DHT22;2338;49.602;8.722;2023-08-06T00:28:03;16.30;99.90
4651;DHT22;2338;49.602;8.722;2023-08-06T00:30:52;16.40;99.90
4651;DHT22;2338;49.602;8.722;2023-08-06T00:33:39;16.40;99.90
4651;DHT22;2338;49.602;8.722;2023-08-06T00:36:25;16.30;99.90
4651;DHT22;2338;49.602;8.722;2023-08-06T00:39:10;16.20;99.90
4651;DHT22;2338;49.602;8.722;2023-08-06T00:41:56;16.30;99.90
4651;DHT22;2338;49.602;8.722;2023-08-06T00:44:42;16.30;99.90
4651;DHT22;2338;49.602;8.722;2023-08-06T00:47:27;16.40;99.90
4651;DHT22;2338;49.602;8.722;2023-08-06T00:50:14;16.40;99.90
4651;DHT22;2338;49.602;8.722;2023-08-06T00:53:00;16.40;99.90
4651;DHT22;2338;49.602;8.722;2023-08-06T00:55:46;16.40;99.90
4651;DHT22;2338;49.602;8.722;2023-08-06T00:58:32;16.50;99.90
4651;DHT22;2338;49.602;8.722;2023-08-06T01:01:18;16.40;99.90
4651;DHT22;2338;49.602;8.722;2023-08-06T01:04:03;16.40;99.90
4651;DHT22;2338;49.602;8.722;2023-08-06T01:06:59;16.40;99.90
4651;DHT22;2338;49.602;8.722;2023-08-06T01:09:53;16.40;99.90
4651;DHT22;2338;49.602;8.722;2023-08-06T01:12:47;16.50;99.90
4651;DHT22;2338;49.602;8.722;2023-08-06T01:15:39;16.40;99.90
4651;DHT22;2338;49.602;8.722;2023-08-06T01:18:26;16.30;99.90
4651;DHT22;2338;49.602;8.722;2023-08-06T01:21:13;16.30;99.90
4651;DHT22;2338;49.602;8.722;2023-08-06T01:23:58;16.30;99.90
4651;DHT22;2338;49.602;8.722;2023-08-06T01:26:48;16.30;99.90
4651;DHT22;2338;49.602;8.722;2023-08-06T01:29:37;16.40;99.90
4651;DHT22;2338;49.602;8.722;2023-08-06T01:32:25;16.40;99.90
4651;DHT22;2338;49.602;8.722;2023-08-06T01:35:12;16.50;99.90
4651;DHT22;2338;49.602;8.722;2023-08-06T01:38:00;16.50;99.90
4651;DHT22;2338;49.602;8.722;2023-08-06T01:40:46;16.30;99.90
4651;DHT22;2338;49.602;8.722;2023-08-06T01:43:31;16.20;99.90
4651;DHT22;2338;49.602;8.722;2023-08-06T01:46:17;16.20;99.90
4651;DHT22;2338;49.602;8.722;2023-08-06T01:49:02;16.20;99.90
4651;DHT22;2338;49.602;8.722;2023-08-06T01:51:47;16.30;99.90
4651;DHT22;2338;49.602;8.722;2023-08-06T01:54:34;16.30;99.90
4651;DHT22;2338;49.602;8.722;2023-08-06T01:57:20;16.30;99.90
4651;DHT22;2338;49.602;8.722;2023-08-06T02:00:06;16.40;99.90
4651;DHT22;2338;49.602;8.722;2023-08-06T02:02:52;16.40;99.90
4651;DHT22;2338;49.602;8.722;2023-08-06T02:05:37;16.40;99.90
4651;DHT22;2338;49.602;8.722;2023-08-06T02:08:23;16.50;99.90
4651;DHT22;2338;49.602;8.722;2023-08-06T02:11:10;16.40;99.90
4651;DHT22;2338;49.602;8.722;2023-08-06T02:13:55;16.40;99.90
4651;DHT22;2338;49.602;8.722;2023-08-06T02:16:41;16.40;99.90
4651;DHT22;2338;49.602;8.722;2023-08-06T02:19:26;16.30;99.90
4651;DHT22;2338;49.602;8.722;2023-08-06T02:22:12;16.30;99.90
4651;DHT22;2338;49.602;8.722;2023-08-06T02:24:57;16.30;99.90
4651;DHT22;2338;49.602;8.722;2023-08-06T02:27:44;16.40;99.90
4651;DHT22;2338;49.602;8.722;2023-08-06T02:30:29;16.50;99.90
4651;DHT22;2338;49.602;8.722;2023-08-06T02:33:15;16.40;99.90
4651;DHT22;2338;49.602;8.722;2023-08-06T02:36:00;16.40;99.90
4651;DHT22;2338;49.602;8.722;2023-08-06T02:38:47;16.50;99.90
4651;DHT22;2338;49.602;8.722;2023-08-06T02:41:33;16.50;99.90
4651;DHT22;2338;49.602;8.722;2023-08-06T02:44:19;16.50;99.90
4651;DHT22;2338;49.602;8.722;2023-08-06T02:47:05;16.50;99.90
4651;DHT22;2338;49.602;8.722;2023-08-06T02:49:50;16.50;99.90
4651;DHT22;2338;49.602;8.722;2023-08-06T02:52:36;16.50;99.90
4651;DHT22;2338;49.602;8.722;2023-08-06T02:55:23;16.60;99.90
4651;DHT22;2338;49.602;8.722;2023-08-06T02:58:08;16.70;99.90
4651;DHT22;2338;49.602;8.722;2023-08-06T03:01:03;16.70;99.90
4651;DHT22;2338;49.602;8.722;2023-08-06T03:03:49;16.60;99.90
4651;DHT22;2338;49.602;8.722;2023-08-06T03:06:34;16.50;99.90
4651;DHT22;2338;49.602;8.722;2023-08-06T03:09:20;16.50;99.90
4651;DHT22;2338;49.602;8.722;2023-08-06T03:12:06;16.60;99.90
4651;DHT22;2338;49.602;8.722;2023-08-06T03:14:52;16.60;99.90
4651;DHT22;2338;49.602;8.722;2023-08-06T03:17:39;16.50;99.90
4651;DHT22;2338;49.602;8.722;2023-08-06T03:20:25;16.40;99.90
4651;DHT22;2338;49.602;8.722;2023-08-06T03:23:10;16.50;99.90
4651;DHT22;2338;49.602;8.722;2023-08-06T03:25:56;16.40;99.90
4651;DHT22;2338;49.602;8.722;2023-08-06T03:28:41;16.40;99.90
4651;DHT22;2338;49.602;8.722;2023-08-06T03:31:27;16.30;99.90
4651;DHT22;2338;49.602;8.722;2023-08-06T03:34:14;16.30;99.90
4651;DHT22;2338;49.602;8.722;2023-08-06T03:36:59;16.10;99.90
4651;DHT22;2338;49.602;8.722;2023-08-06T03:39:44;16.20;99.90
4651;DHT22;2338;49.602;8.722;2023-08-06T03:42:30;16.20;99.90
4651;DHT22;2338;49.602;8.722;2023-08-06T03:45:16;16.10;99.90
4651;DHT22;2338;49.602;8.722;2023-08-06T03:48:01;16.20;99.90
4651;DHT22;2338;49.602;8.722;2023-08-06T03:50:48;16.30;99.90
4651;DHT22;2338;49.602;8.722;2023-08-06T03:53:33;16.20;99.90
4651;DHT22;2338;49.602;8.722;2023-08-06T03:56:18;16.20;99.90
4651;DHT22;2338;49.602;8.722;2023-08-06T03:59:04;16.30;99.90
4651;DHT22;2338;49.602;8.722;2023-08-06T04:01:49;16.40;99.90
4651;DHT22;2338;49.602;8.722;2023-08-06T04:04:35;16.20;99.90
4651;DHT22;2338;49.602;8.722;2023-08-06T04:07:21;16.20;99.90
4651;DHT22;2338;49.602;8.722;2023-08-06T04:10:08;16.10;99.90
4651;DHT22;2338;49.602;8.722;2023-08-06T04:12:53;16.20;99.90
4651;DHT22;2338;49.602;8.722;2023-08-06T04:15:38;16.20;99.90
4651;DHT22;2338;49.602;8.722;2023-08-06T04:18:24;16.20;99.90
4651;DHT22;2338;49.602;8.722;2023-08-06T04:21:09;16.30;99.90
4651;DHT22;2338;49.602;8.722;2023-08-06T04:23:57;16.30;99.90
4651;DHT22;2338;49.602;8.722;2023-08-06T04:26:42;16.20;99.90
4651;DHT22;2338;49.602;8.722;2023-08-06T04:29:28;16.30;99.90
4651;DHT22;2338;49.602;8.722;2023-08-06T04:32:13;16.30;99.90
4651;DHT22;2338;49.602;8.722;2023-08-06T04:34:59;16.30;99.90
4651;DHT22;2338;49.602;8.722;2023-08-06T04:37:44;16.20;99.90
4651;DHT22;2338;49.602;8.722;2023-08-06T04:40:33;16.20;99.90
4651;DHT22;2338;49.602;8.722;2023-08-06T04:43:18;16.00;99.90
4651;DHT22;2338;49.602;8.722;2023-08-06T04:46:05;15.80;99.90
4651;DHT22;2338;49.602;8.722;2023-08-06T04:48:50;15.70;99.90
4651;DHT22;2338;49.602;8.722;2023-08-06T04:51:35;15.70;99.90
4651;DHT22;2338;49.602;8.722;2023-08-06T04:54:21;15.70;99.90
4651;DHT22;2338;49.602;8.722;2023-08-06T04:57:08;15.70;99.90
4651;DHT22;2338;49.602;8.722;2023-08-06T04:59:53;15.70;99.90
4651;DHT22;2338;49.602;8.722;2023-08-06T05:02:39;15.70;99.90
4651;DHT22;2338;49.602;8.722;2023-08-06T05:05:24;15.80;99.90
4651;DHT22;2338;49.602;8.722;2023-08-06T05:08:14;15.90;99.90
4651;DHT22;2338;49.602;8.722;2023-08-06T05:11:00;15.90;99.90
4651;DHT22;2338;49.602;8.722;2023-08-06T05:13:47;15.80;99.90
4651;DHT22;2338;49.602;8.722;2023-08-06T05:16:32;15.60;99.90
4651;DHT22;2338;49.602;8.722;2023-08-06T05:19:18;15.50;99.90
4651;DHT22;2338;49.602;8.722;2023-08-06T05:22:04;15.50;99.90
4651;DHT22;2338;49.602;8.722;2023-08-06T05:24:49;15.60;99.90
4651;DHT22;2338;49.602;8.722;2023-08-06T05:27:35;15.50;99.90
4651;DHT22;2338;49.602;8.722;2023-08-06T05:30:22;15.40;99.90
4651;DHT22;2338;49.602;8.722;2023-08-06T05:33:07;15.40;99.90
4651;DHT22;2338;49.602;8.722;2023-08-06T05:35:53;15.40;99.90
4651;DHT22;2338;49.602;8.722;2023-08-06T05:38:38;15.50;99.90
4651;DHT22;2338;49.602;8.722;2023-08-06T05:41:24;15.40;99.90
4651;DHT22;2338;49.602;8.722;2023-08-06T05:44:09;15.30;99.90
4651;DHT22;2338;49.602;8.722;2023-08-06T05:46:56;15.30;99.90
4651;DHT22;2338;49.602;8.722;2023-08-06T05:49:42;15.30;99.90
4651;DHT22;2338;49.602;8.722;2023-08-06T05:52:27;15.30;99.90
4651;DHT22;2338;49.602;8.722;2023-08-06T05:55:13;15.40;99.90
4651;DHT22;2338;49.602;8.722;2023-08-06T05:57:58;15.20;99.90
4651;DHT22;2338;49.602;8.722;2023-08-06T06:00:44;15.10;99.90
4651;DHT22;2338;49.602;8.722;2023-08-06T06:03:31;15.20;99.90
4651;DHT22;2338;49.602;8.722;2023-08-06T06:06:16;15.30;99.90
4651;DHT22;2338;49.602;8.722;2023-08-06T06:09:03;15.30;99.90
4651;DHT22;2338;49.602;8.722;2023-08-06T06:11:48;15.30;99.90
4651;DHT22;2338;49.602;8.722;2023-08-06T06:14:34;15.20;99.90
4651;DHT22;2338;49.602;8.722;2023-08-06T06:17:19;15.20;99.90
4651;DHT22;2338;49.602;8.722;2023-08-06T06:20:07;15.00;99.90
4651;DHT22;2338;49.602;8.722;2023-08-06T06:22:53;15.10;99.90
4651;DHT22;2338;49.602;8.722;2023-08-06T06:25:42;15.10;99.90
4651;DHT22;2338;49.602;8.722;2023-08-06T06:28:27;15.20;99.90
4651;DHT22;2338;49.602;8.722;2023-08-06T06:31:13;15.10;99.90
4651;DHT22;2338;49.602;8.722;2023-08-06T06:33:58;15.10;99.90
4651;DHT22;2338;49.602;8.722;2023-08-06T06:36:45;15.20;99.90
4651;DHT22;2338;49.602;8.722;2023-08-06T06:39:31;15.20;99.90
4651;DHT22;2338;49.602;8.722;2023-08-06T06:42:17;15.20;99.90
4651;DHT22;2338;49.602;8.722;2023-08-06T06:45:02;15.20;99.90
4651;DHT22;2338;49.602;8.722;2023-08-06T06:47:48;15.20;99.90
4651;DHT22;2338;49.602;8.722;2023-08-06T06:50:33;15.10;99.90
4651;DHT22;2338;49.602;8.722;2023-08-06T06:53:22;15.00;99.90
4651;DHT22;2338;49.602;8.722;2023-08-06T06:56:11;15.00;99.90
4651;DHT22;2338;49.602;8.722;2023-08-06T06:58:56;15.10;99.90
4651;DHT22;2338;49.602;8.722;2023-08-06T07:01:41;15.00;99.90
4651;DHT22;2338;49.602;8.722;2023-08-06T07:04:27;15.00;99.90
4651;DHT22;2338;49.602;8.722;2023-08-06T07:07:13;14.90;99.90
4651;DHT22;2338;49.602;8.722;2023-08-06T07:09:59;14.90;99.90
4651;DHT22;2338;49.602;8.722;2023-08-06T07:12:45;15.00;99.90
4651;DHT22;2338;49.602;8.722;2023-08-06T07:15:31;15.00;99.90
4651;DHT22;2338;49.602;8.722;2023-08-06T07:18:16;15.10;99.90
4651;DHT22;2338;49.602;8.722;2023-08-06T07:21:02;15.10;99.90
4651;DHT22;2338;49.602;8.722;2023-08-06T07:23:47;15.10;99.90
4651;DHT22;2338;49.602;8.722;2023-08-06T07:26:35;15.20;99.90
4651;DHT22;2338;49.602;8.722;2023-08-06T07:29:20;15.40;99.90
4651;DHT22;2338;49.602;8.722;2023-08-06T07:32:07;15.40;99.90
4651;DHT22;2338;49.602;8.722;2023-08-06T07:34:52;15.50;99.90
4651;DHT22;2338;49.602;8.722;2023-08-06T07:37:40;15.50;99.90
4651;DHT22;2338;49.602;8.722;2023-08-06T07:40:26;15.40;99.90
4651;DHT22;2338;49.602;8.722;2023-08-06T07:43:13;15.40;99.90
4651;DHT22;2338;49.602;8.722;2023-08-06T07:45:59;15.40;99.90
4651;DHT22;2338;49.602;8.722;2023-08-06T07:48:44;15.40;99.90
4651;DHT22;2338;49.602;8.722;2023-08-06T07:51:30;15.30;99.90
4651;DHT22;2338;49.602;8.722;2023-08-06T07:54:15;15.30;99.90
4651;DHT22;2338;49.602;8.722;2023-08-06T07:57:01;15.20;99.90
4651;DHT22;2338;49.602;8.722;2023-08-06T07:59:48;15.20;99.90
4651;DHT22;2338;49.602;8.722;2023-08-06T08:02:33;15.30;99.90
4651;DHT22;2338;49.602;8.722;2023-08-06T08:05:19;15.40;99.90
4651;DHT22;2338;49.602;8.722;2023-08-06T08:08:04;15.40;99.90
4651;DHT22;2338;49.602;8.722;2023-08-06T08:10:50;15.50;99.90
4651;DHT22;2338;49.602;8.722;2023-08-06T08:13:35;15.40;99.90
4651;DHT22;2338;49.602;8.722;2023-08-06T08:16:22;15.40;99.90
4651;DHT22;2338;49.602;8.722;2023-08-06T08:19:08;15.40;99.90
4651;DHT22;2338;49.602;8.722;2023-08-06T08:21:53;15.40;99.90
4651;DHT22;2338;49.602;8.722;2023-08-06T08:24:39;15.30;99.90
4651;DHT22;2338;49.602;8.722;2023-08-06T08:27:24;15.30;99.90
4651;DHT22;2338;49.602;8.722;2023-08-06T08:30:10;15.40;99.90
4651;DHT22;2338;49.602;8.722;2023-08-06T08:32:57;15.60;99.90
4651;DHT22;2338;49.602;8.722;2023-08-06T08:35:42;15.70;99.90
4651;DHT22;2338;49.602;8.722;2023-08-06T08:38:28;15.60;99.90
4651;DHT22;2338;49.602;8.722;2023-08-06T08:41:15;15.70;99.90
4651;DHT22;2338;49.602;8.722;2023-08-06T08:44:01;15.80;99.90
4651;DHT22;2338;49.602;8.722;2023-08-06T08:46:47;15.80;99.90
4651;DHT22;2338;49.602;8.722;2023-08-06T08:49:35;15.90;99.90
4651;DHT22;2338;49.602;8.722;2023-08-06T08:52:21;16.00;99.90
4651;DHT22;2338;49.602;8.722;2023-08-06T08:55:08;15.90;99.90
4651;DHT22;2338;49.602;8.722;2023-08-06T08:57:53;15.90;99.90
4651;DHT22;2338;49.602;8.722;2023-08-06T09:00:40;16.10;99.90
4651;DHT22;2338;49.602;8.722;2023-08-06T09:03:26;16.10;99.90
4651;DHT22;2338;49.602;8.722;2023-08-06T09:06:14;16.10;99.90
4651;DHT22;2338;49.602;8.722;2023-08-06T09:09:06;16.20;99.90
4651;DHT22;2338;49.602;8.722;2023-08-06T09:11:51;16.20;99.90
4651;DHT22;2338;49.602;8.722;2023-08-06T09:14:37;16.20;99.90
4651;DHT22;2338;49.602;8.722;2023-08-06T09:17:23;16.10;99.90
4651;DHT22;2338;49.602;8.722;2023-08-06T09:20:12;16.20;99.90
4651;DHT22;2338;49.602;8.722;2023-08-06T09:23:07;16.30;99.90
4651;DHT22;2338;49.602;8.722;2023-08-06T09:25:52;16.30;99.90
4651;DHT22;2338;49.602;8.722;2023-08-06T09:28:38;16.20;99.90
4651;DHT22;2338;49.602;8.722;2023-08-06T09:31:32;16.10;99.90
4651;DHT22;2338;49.602;8.722;2023-08-06T09:34:18;16.20;99.90
4651;DHT22;2338;49.602;8.722;2023-08-06T09:37:04;16.30;99.90
4651;DHT22;2338;49.602;8.722;2023-08-06T09:39:50;16.40;99.90
4651;DHT22;2338;49.602;8.722;2023-08-06T09:42:38;16.40;99.90
4651;DHT22;2338;49.602;8.722;2023-08-06T09:45:30;16.40;99.90
4651;DHT22;2338;49.602;8.722;2023-08-06T09:48:15;16.40;99.90
4651;DHT22;2338;49.602;8.722;2023-08-06T09:51:02;16.40;99.90
4651;DHT22;2338;49.602;8.722;2023-08-06T09:53:48;16.50;99.90
4651;DHT22;2338;49.602;8.722;2023-08-06T09:56:36;16.30;99.90
4651;DHT22;2338;49.602;8.722;2023-08-06T09:59:23;16.20;99.90
4651;DHT22;2338;49.602;8.722;2023-08-06T10:02:12;16.30;99.90
4651;DHT22;2338;49.602;8.722;2023-08-06T10:04:58;16.40;99.90
4651;DHT22;2338;49.602;8.722;2023-08-06T10:07:44;16.50;99.90
4651;DHT22;2338;49.602;8.722;2023-08-06T10:10:31;16.50;99.90
4651;DHT22;2338;49.602;8.722;2023-08-06T10:13:20;16.40;99.90
4651;DHT22;2338;49.602;8.722;2023-08-06T10:16:06;16.40;99.90
4651;DHT22;2338;49.602;8.722;2023-08-06T10:18:53;16.30;99.90
4651;DHT22;2338;49.602;8.722;2023-08-06T10:21:39;16.40;99.90
4651;DHT22;2338;49.602;8.722;2023-08-06T10:24:25;16.40;99.90
4651;DHT22;2338;49.602;8.722;2023-08-06T10:27:11;16.30;99.90
4651;DHT22;2338;49.602;8.722;2023-08-06T10:30:21;16.30;99.90
4651;DHT22;2338;49.602;8.722;2023-08-06T10:33:06;16.20;99.90
4651;DHT22;2338;49.602;8.722;2023-08-06T10:36:01;16.10;99.90
4651;DHT22;2338;49.602;8.722;2023-08-06T10:38:49;16.10;99.90
4651;DHT22;2338;49.602;8.722;2023-08-06T10:41:35;16.10;99.90
4651;DHT22;2338;49.602;8.722;2023-08-06T10:44:20;16.00;99.90
4651;DHT22;2338;49.602;8.722;2023-08-06T10:47:28;16.10;99.90
4651;DHT22;2338;49.602;8.722;2023-08-06T10:50:14;16.10;99.90
4651;DHT22;2338;49.602;8.722;2023-08-06T10:53:04;15.90;99.90
4651;DHT22;2338;49.602;8.722;2023-08-06T10:55:50;15.80;99.90
4651;DHT22;2338;49.602;8.722;2023-08-06T10:58:36;15.70;99.90
4651;DHT22;2338;49.602;8.722;2023-08-06T11:01:22;15.70;99.90
4651;DHT22;2338;49.602;8.722;2023-08-06T11:04:09;15.70;99.90
4651;DHT22;2338;49.602;8.722;2023-08-06T11:07:00;15.70;99.90
4651;DHT22;2338;49.602;8.722;2023-08-06T11:09:50;15.60;99.90
4651;DHT22;2338;49.602;8.722;2023-08-06T11:12:36;15.70;99.90
4651;DHT22;2338;49.602;8.722;2023-08-06T11:15:22;15.80;99.90
4651;DHT22;2338;49.602;8.722;2023-08-06T11:18:07;15.70;99.90
4651;DHT22;2338;49.602;8.722;2023-08-06T11:20:54;15.70;99.90
4651;DHT22;2338;49.602;8.722;2023-08-06T11:23:40;15.60;99.90
4651;DHT22;2338;49.602;8.722;2023-08-06T11:26:26;15.60;99.90
4651;DHT22;2338;49.602;8.722;2023-08-06T11:29:12;15.50;99.90
4651;DHT22;2338;49.602;8.722;2023-08-06T11:32:03;15.40;99.90
4651;DHT22;2338;49.602;8.722;2023-08-06T11:34:49;15.40;99.90
4651;DHT22;2338;49.602;8.722;2023-08-06T11:37:36;15.40;99.90
4651;DHT22;2338;49.602;8.722;2023-08-06T11:40:21;15.50;99.90
4651;DHT22;2338;49.602;8.722;2023-08-06T11:43:07;15.60;99.90
4651;DHT22;2338;49.602;8.722;2023-08-06T11:45:56;15.60;99.90
4651;DHT22;2338;49.602;8.722;2023-08-06T11:48:51;15.70;99.90
4651;DHT22;2338;49.602;8.722;2023-08-06T11:51:36;15.70;99.90
4651;DHT22;2338;49.602;8.722;2023-08-06T11:54:32;15.80;99.90
4651;DHT22;2338;49.602;8.722;2023-08-06T11:57:18;15.80;99.90
4651;DHT22;2338;49.602;8.722;2023-08-06T12:00:04;15.90;99.90
4651;DHT22;2338;49.602;8.722;2023-08-06T12:02:50;15.90;99.90
4651;DHT22;2338;49.602;8.722;2023-08-06T12:05:37;15.90;99.90
4651;DHT22;2338;49.602;8.722;2023-08-06T12:08:26;15.80;99.90
4651;DHT22;2338;49.602;8.722;2023-08-06T12:11:13;15.80;99.90
4651;DHT22;2338;49.602;8.722;2023-08-06T12:13:59;15.80;99.90
4651;DHT22;2338;49.602;8.722;2023-08-06T12:16:45;15.90;99.90
4651;DHT22;2338;49.602;8.722;2023-08-06T12:19:31;15.90;99.90
4651;DHT22;2338;49.602;8.722;2023-08-06T12:22:16;15.90;99.90
4651;DHT22;2338;49.602;8.722;2023-08-06T12:25:02;15.90;99.90
4651;DHT22;2338;49.602;8.722;2023-08-06T12:27:49;16.00;99.90
4651;DHT22;2338;49.602;8.722;2023-08-06T12:30:35;16.00;99.90
4651;DHT22;2338;49.602;8.722;2023-08-06T12:33:20;16.00;99.90
4651;DHT22;2338;49.602;8.722;2023-08-06T12:36:06;16.00;99.90
4651;DHT22;2338;49.602;8.722;2023-08-06T12:38:51;16.10;99.90
4651;DHT22;2338;49.602;8.722;2023-08-06T12:41:37;16.00;99.90
4651;DHT22;2338;49.602;8.722;2023-08-06T12:44:24;16.00;99.90
4651;DHT22;2338;49.602;8.722;2023-08-06T12:47:09;16.00;99.90
4651;DHT22;2338;49.602;8.722;2023-08-06T12:49:55;16.00;99.90
4651;DHT22;2338;49.602;8.722;2023-08-06T12:52:40;16.00;99.90
4651;DHT22;2338;49.602;8.722;2023-08-06T12:55:26;16.00;99.90
4651;DHT22;2338;49.602;8.722;2023-08-06T12:58:11;16.00;99.90
4651;DHT22;2338;49.602;8.722;2023-08-06T13:00:58;16.10;99.90
4651;DHT22;2338;49.602;8.722;2023-08-06T13:03:44;16.10;99.90
4651;DHT22;2338;49.602;8.722;2023-08-06T13:06:29;16.10;99.90
4651;DHT22;2338;49.602;8.722;2023-08-06T13:09:19;16.10;99.90
4651;DHT22;2338;49.602;8.722;2023-08-06T13:12:05;16.20;99.90
4651;DHT22;2338;49.602;8.722;2023-08-06T13:14:51;16.20;99.90
4651;DHT22;2338;49.602;8.722;2023-08-06T13:17:38;16.20;99.90
4651;DHT22;2338;49.602;8.722;2023-08-06T13:20:24;16.10;99.90
4651;DHT22;2338;49.602;8.722;2023-08-06T13:23:09;16.10;99.90
4651;DHT22;2338;49.602;8.722;2023-08-06T13:25:55;16.00;99.90
4651;DHT22;2338;49.602;8.722;2023-08-06T13:28:40;15.90;99.90
4651;DHT22;2338;49.602;8.722;2023-08-06T13:31:26;15.80;99.90
4651;DHT22;2338;49.602;8.722;2023-08-06T13:34:13;15.80;99.90
4651;DHT22;2338;49.602;8.722;2023-08-06T13:37:00;15.70;99.90
4651;DHT22;2338;49.602;8.722;2023-08-06T13:39:46;15.80;99.90
4651;DHT22;2338;49.602;8.722;2023-08-06T13:42:32;15.80;99.90
4651;DHT22;2338;49.602;8.722;2023-08-06T13:45:17;15.80;99.90
4651;DHT22;2338;49.602;8.722;2023-08-06T13:48:03;15.80;99.90
4651;DHT22;2338;49.602;8.722;2023-08-06T13:50:50;15.90;99.90
4651;DHT22;2338;49.602;8.722;2023-08-06T13:53:35;15.90;99.90
4651;DHT22;2338;49.602;8.722;2023-08-06T13:56:21;16.00;99.90
4651;DHT22;2338;49.602;8.722;2023-08-06T13:59:07;16.00;99.90
4651;DHT22;2338;49.602;8.722;2023-08-06T14:01:52;16.00;99.90
4651;DHT22;2338;49.602;8.722;2023-08-06T14:04:37;16.10;99.90
4651;DHT22;2338;49.602;8.722;2023-08-06T14:07:25;16.10;99.90
4651;DHT22;2338;49.602;8.722;2023-08-06T14:10:11;16.10;99.90
4651;DHT22;2338;49.602;8.722;2023-08-06T14:12:56;16.20;99.90
4651;DHT22;2338;49.602;8.722;2023-08-06T14:15:42;16.10;99.90
4651;DHT22;2338;49.602;8.722;2023-08-06T14:18:30;16.20;99.90
4651;DHT22;2338;49.602;8.722;2023-08-06T14:21:16;16.20;99.90
4651;DHT22;2338;49.602;8.722;2023-08-06T14:24:03;16.20;99.90
4651;DHT22;2338;49.602;8.722;2023-08-06T14:26:48;16.10;99.90
4651;DHT22;2338;49.602;8.722;2023-08-06T14:29:34;16.10;99.90
4651;DHT22;2338;49.602;8.722;2023-08-06T14:32:20;16.10;99.90
4651;DHT22;2338;49.602;8.722;2023-08-06T14:35:07;16.10;99.90
4651;DHT22;2338;49.602;8.722;2023-08-06T14:37:52;16.10;99.90
4651;DHT22;2338;49.602;8.722;2023-08-06T14:40:39;16.10;99.90
4651;DHT22;2338;49.602;8.722;2023-08-06T14:43:25;16.10;99.90
4651;DHT22;2338;49.602;8.722;2023-08-06T14:46:10;16.10;99.90
4651;DHT22;2338;49.602;8.722;2023-08-06T14:48:56;16.10;99.90
4651;DHT22;2338;49.602;8.722;2023-08-06T14:51:41;16.00;99.90
4651;DHT22;2338;49.602;8.722;2023-08-06T14:54:27;16.00;99.90
4651;DHT22;2338;49.602;8.722;2023-08-06T14:57:14;16.10;99.90
4651;DHT22;2338;49.602;8.722;2023-08-06T14:59:59;16.10;99.90
4651;DHT22;2338;49.602;8.722;2023-08-06T15:02:45;16.10;99.90
4651;DHT22;2338;49.602;8.722;2023-08-06T15:05:31;16.00;99.90
4651;DHT22;2338;49.602;8.722;2023-08-06T15:08:17;16.00;99.90
4651;DHT22;2338;49.602;8.722;2023-08-06T15:11:03;16.00;99.90
4651;DHT22;2338;49.602;8.722;2023-08-06T15:13:49;16.00;99.90
4651;DHT22;2338;49.602;8.722;2023-08-06T15:16:35;16.00;99.90
4651;DHT22;2338;49.602;8.722;2023-08-06T15:19:21;15.90;99.90
4651;DHT22;2338;49.602;8.722;2023-08-06T15:22:06;15.90;99.90
4651;DHT22;2338;49.602;8.722;2023-08-06T15:24:54;16.00;99.90
4651;DHT22;2338;49.602;8.722;2023-08-06T15:27:40;15.90;99.90
4651;DHT22;2338;49.602;8.722;2023-08-06T15:30:26;15.90;99.90
4651;DHT22;2338;49.602;8.722;2023-08-06T15:33:12;15.80;99.90
4651;DHT22;2338;49.602;8.722;2023-08-06T15:35:58;15.80;99.90
4651;DHT22;2338;49.602;8.722;2023-08-06T15:38:43;15.90;99.90
4651;DHT22;2338;49.602;8.722;2023-08-06T15:41:29;15.70;99.90
4651;DHT22;2338;49.602;8.722;2023-08-06T15:44:14;15.70;99.90
4651;DHT22;2338;49.602;8.722;2023-08-06T15:47:01;15.70;99.90
4651;DHT22;2338;49.602;8.722;2023-08-06T15:49:47;15.70;99.90
4651;DHT22;2338;49.602;8.722;2023-08-06T15:52:32;15.80;99.90
4651;DHT22;2338;49.602;8.722;2023-08-06T15:55:18;15.80;99.90
4651;DHT22;2338;49.602;8.722;2023-08-06T15:58:03;15.90;99.90
4651;DHT22;2338;49.602;8.722;2023-08-06T16:00:49;15.90;99.90
4651;DHT22;2338;49.602;8.722;2023-08-06T16:03:37;15.90;99.90
4651;DHT22;2338;49.602;8.722;2023-08-06T16:06:25;15.90;99.90
4651;DHT22;2338;49.602;8.722;2023-08-06T16:09:11;15.80;99.90
4651;DHT22;2338;49.602;8.722;2023-08-06T16:11:57;15.70;99.90
4651;DHT22;2338;49.602;8.722;2023-08-06T16:14:42;15.60;99.90
4651;DHT22;2338;49.602;8.722;2023-08-06T16:17:28;15.50;99.90
4651;DHT22;2338;49.602;8.722;2023-08-06T16:20:15;15.50;99.90
4651;DHT22;2338;49.602;8.722;2023-08-06T16:23:00;15.50;99.90
4651;DHT22;2338;49.602;8.722;2023-08-06T16:25:47;15.50;99.90
4651;DHT22;2338;49.602;8.722;2023-08-06T16:28:32;15.60;99.90
4651;DHT22;2338;49.602;8.722;2023-08-06T16:31:18;15.60;99.90
4651;DHT22;2338;49.602;8.722;2023-08-06T16:34:04;15.50;99.90
4651;DHT22;2338;49.602;8.722;2023-08-06T16:36:51;15.50;99.90
4651;DHT22;2338;49.602;8.722;2023-08-06T16:39:36;15.50;99.90
4651;DHT22;2338;49.602;8.722;2023-08-06T16:42:22;15.50;99.90
4651;DHT22;2338;49.602;8.722;2023-08-06T16:45:08;15.50;99.90
4651;DHT22;2338;49.602;8.722;2023-08-06T16:47:54;15.50;99.90
4651;DHT22;2338;49.602;8.722;2023-08-06T16:50:39;15.40;99.90
4651;DHT22;2338;49.602;8.722;2023-08-06T16:53:27;15.40;99.90
4651;DHT22;2338;49.602;8.722;2023-08-06T16:56:12;15.40;99.90
4651;DHT22;2338;49.602;8.722;2023-08-06T16:59:00;15.40;99.90
4651;DHT22;2338;49.602;8.722;2023-08-06T17:01:45;15.30;99.90
4651;DHT22;2338;49.602;8.722;2023-08-06T17:04:31;15.30;99.90
4651;DHT22;2338;49.602;8.722;2023-08-06T17:07:17;15.40;99.90
4651;DHT22;2338;49.602;8.722;2023-08-06T17:10:05;15.40;99.90
4651;DHT22;2338;49.602;8.722;2023-08-06T17:12:51;15.30;99.90
4651;DHT22;2338;49.602;8.722;2023-08-06T17:15:37;15.30;99.90
4651;DHT22;2338;49.602;8.722;2023-08-06T17:18:23;15.30;99.90
4651;DHT22;2338;49.602;8.722;2023-08-06T17:21:08;15.30;99.90
4651;DHT22;2338;49.602;8.722;2023-08-06T17:23:53;15.20;99.90
4651;DHT22;2338;49.602;8.722;2023-08-06T17:26:41;15.20;99.90
4651;DHT22;2338;49.602;8.722;2023-08-06T17:29:26;15.20;99.90
4651;DHT22;2338;49.602;8.722;2023-08-06T17:32:12;15.10;99.90
4651;DHT22;2338;49.602;8.722;2023-08-06T17:34:57;15.00;99.90
4651;DHT22;2338;49.602;8.722;2023-08-06T17:37:43;15.00;99.90
4651;DHT22;2338;49.602;8.722;2023-08-06T17:40:29;15.10;99.90
4651;DHT22;2338;49.602;8.722;2023-08-06T17:43:16;15.20;99.90
4651;DHT22;2338;49.602;8.722;2023-08-06T17:46:01;15.20;99.90
4651;DHT22;2338;49.602;8.722;2023-08-06T17:48:46;15.20;99.90
4651;DHT22;2338;49.602;8.722;2023-08-06T17:51:32;15.10;99.90
4651;DHT22;2338;49.602;8.722;2023-08-06T17:54:17;15.10;99.90
4651;DHT22;2338;49.602;8.722;2023-08-06T17:57:03;15.20;99.90
4651;DHT22;2338;49.602;8.722;2023-08-06T17:59:50;15.10;99.90
4651;DHT22;2338;49.602;8.722;2023-08-06T18:02:36;15.10;99.90
4651;DHT22;2338;49.602;8.722;2023-08-06T18:05:22;15.10;99.90